Time;durP1;ratioP1;P1;durP2;ratioP2;P2;SDS_P1;SDS_P2;PMS_P1;PMS_P2;Temp;Humidity;BMP_temperature;BMP_pressure;BME280_temperature;BME280_humidity;BME280_pressure;Samples;Min_cycle;Max_cycle;Signal;HPM_P1;HPM_P2
2022/04/15 00:01:11;;;;;;;24.17;11.75;;;;;;;;;;6255670;28;20479;-73
2022/04/15 00:04:12;;;;;;;23.13;11.43;;;;;;;;;;6260866;28;20445;-73
2022/04/15 00:07:15;;;;;;;24.27;11.70;;;;;;;;;;6257841;28;20523;-73
2022/04/15 00:10:17;;;;;;;23.42;12.07;;;;;;;;;;6259744;28;20092;-73
2022/04/15 00:13:24;;;;;;;23.23;11.82;;;;;;;;;;6260603;28;20512;-73
2022/04/15 00:16:25;;;;;;;23.05;10.80;;;;;;;;;;6259889;28;20420;-73
2022/04/15 00:19:27;;;;;;;26.52;12.57;;;;;;;;;;6257086;28;20457;-73
2022/04/15 00:22:30;;;;;;;20.52;12.15;;;;;;;;;;6255978;28;20057;-72
2022/04/15 00:25:32;;;;;;;22.67;10.90;;;;;;;;;;6254199;28;20156;-73
2022/04/15 00:28:34;;;;;;;22.27;11.77;;;;;;;;;;6257139;28;20077;-73
2022/04/15 00:31:35;;;;;;;25.83;10.88;;;;;;;;;;6259047;28;20061;-72
2022/04/15 00:34:37;;;;;;;25.30;11.10;;;;;;;;;;6267846;28;20049;-74
2022/04/15 00:37:40;;;;;;;27.95;11.93;;;;;;;;;;6265819;28;20048;-72
2022/04/15 00:40:42;;;;;;;22.40;11.03;;;;;;;;;;6275903;28;20460;-74
2022/04/15 00:43:43;;;;;;;22.70;11.60;;;;;;;;;;6263610;28;20061;-73
2022/04/15 00:46:45;;;;;;;25.67;10.35;;;;;;;;;;6266353;28;20056;-74
2022/04/15 00:49:46;;;;;;;24.42;11.70;;;;;;;;;;6258868;28;20128;-73
2022/04/15 00:52:50;;;;;;;28.50;10.95;;;;;;;;;;6257628;28;20126;-73
2022/04/15 00:55:54;;;;;;;27.20;11.05;;;;;;;;;;6261411;28;20048;-73
2022/04/15 00:58:59;;;;;;;21.52;10.68;;;;;;;;;;6257978;28;20049;-73
2022/04/15 01:02:03;;;;;;;24.38;11.02;;;;;;;;;;6260867;28;20049;-73
2022/04/15 01:05:05;;;;;;;;;;;;;;;;;;6261904;28;20396;-73
2022/04/15 01:08:09;;;;;;;17.40;9.55;;;;;;;;;;6261470;28;19921;-74
2022/04/15 01:11:12;;;;;;;25.63;10.85;;;;;;;;;;6262147;28;20143;-72
2022/04/15 01:14:15;;;;;;;25.77;10.82;;;;;;;;;;6262317;28;20037;-73
2022/04/15 01:17:16;;;;;;;21.20;11.02;;;;;;;;;;6259409;28;20049;-71
2022/04/15 01:20:18;;;;;;;22.15;11.35;;;;;;;;;;6261805;28;20798;-73
2022/04/15 01:23:21;;;;;;;29.20;11.38;;;;;;;;;;6257049;28;20085;-74
2022/04/15 01:26:23;;;;;;;23.98;11.27;;;;;;;;;;6255070;28;20057;-74
2022/04/15 01:29:26;;;;;;;29.88;12.15;;;;;;;;;;6252903;28;20053;-74
2022/04/15 01:32:28;;;;;;;29.65;12.35;;;;;;;;;;6255697;28;20518;-74
2022/04/15 01:35:30;;;;;;;25.08;10.90;;;;;;;;;;6255542;28;20555;-73
2022/04/15 01:38:34;;;;;;;26.02;10.90;;;;;;;;;;6263365;28;20128;-73
2022/04/15 01:41:39;;;;;;;23.55;10.85;;;;;;;;;;6258367;28;20128;-74
2022/04/15 01:44:41;;;;;;;21.10;10.85;;;;;;;;;;6260439;28;20136;-74
2022/04/15 01:47:43;;;;;;;22.15;10.23;;;;;;;;;;6254188;28;20141;-74
2022/04/15 01:50:46;;;;;;;21.17;10.00;;;;;;;;;;6255459;28;20045;-74
2022/04/15 01:53:49;;;;;;;19.65;9.38;;;;;;;;;;6247244;28;20286;-74
2022/04/15 01:56:50;;;;;;;18.80;10.00;;;;;;;;;;6256311;28;20500;-73
2022/04/15 01:59:52;;;;;;;16.88;9.43;;;;;;;;;;6253667;28;20512;-73
2022/04/15 02:02:55;;;;;;;19.02;9.88;;;;;;;;;;6257358;28;20037;-73
2022/04/15 02:05:56;;;;;;;18.77;9.88;;;;;;;;;;6254822;28;20179;-73
2022/04/15 02:08:59;;;;;;;24.35;10.25;;;;;;;;;;6258909;28;20132;-73
2022/04/15 02:12:01;;;;;;;20.07;9.87;;;;;;;;;;6255469;28;20432;-74
2022/04/15 02:15:05;;;;;;;20.90;9.88;;;;;;;;;;6256023;28;20397;-73
2022/04/15 02:18:06;;;;;;;18.45;9.57;;;;;;;;;;6255674;28;20814;-76
2022/04/15 02:21:08;;;;;;;21.73;10.35;;;;;;;;;;6259239;28;20057;-73
2022/04/15 02:24:11;;;;;;;22.27;11.15;;;;;;;;;;6260184;28;20107;-73
2022/04/15 02:27:13;;;;;;;24.38;10.75;;;;;;;;;;6257492;28;20611;-73
2022/04/15 02:30:15;;;;;;;25.23;10.90;;;;;;;;;;6261756;28;20062;-73
2022/04/15 02:33:16;;;;;;;21.98;10.88;;;;;;;;;;6259213;28;20045;-73
2022/04/15 02:36:18;;;;;;;19.85;10.95;;;;;;;;;;6259063;28;20068;-73
2022/04/15 02:39:21;;;;;;;18.52;10.82;;;;;;;;;;6257049;28;20140;-73
2022/04/15 02:42:23;;;;;;;24.23;11.70;;;;;;;;;;6262733;28;20092;-74
2022/04/15 02:45:24;;;;;;;21.42;10.55;;;;;;;;;;6257961;28;20063;-73
2022/04/15 02:48:26;;;;;;;20.55;10.77;;;;;;;;;;6260017;28;20084;-73
2022/04/15 02:51:28;;;;;;;21.25;10.77;;;;;;;;;;6259087;28;20192;-74
2022/04/15 02:54:31;;;;;;;21.02;10.68;;;;;;;;;;6257720;28;20220;-73
2022/04/15 02:57:32;;;;;;;21.33;10.97;;;;;;;;;;6260030;28;20076;-73
2022/04/15 03:00:34;;;;;;;19.38;10.13;;;;;;;;;;6254025;28;20127;-74
2022/04/15 03:03:35;;;;;;;18.95;10.70;;;;;;;;;;6258444;28;20048;-73
2022/04/15 03:06:37;;;;;;;24.80;11.43;;;;;;;;;;6259611;28;20049;-73
2022/04/15 03:09:40;;;;;;;18.25;9.77;;;;;;;;;;6257994;28;22648;-73
2022/04/15 03:12:41;;;;;;;20.35;11.82;;;;;;;;;;6251636;28;20041;-73
2022/04/15 03:15:43;;;;;;;24.70;11.07;;;;;;;;;;6256683;28;20489;-73
2022/04/15 03:18:45;;;;;;;17.50;11.02;;;;;;;;;;6252317;28;20060;-73
2022/04/15 03:21:47;;;;;;;23.27;12.10;;;;;;;;;;6259202;28;20426;-74
2022/04/15 03:24:51;;;;;;;22.08;11.98;;;;;;;;;;6251629;28;20061;-74
2022/04/15 03:27:53;;;;;;;25.10;12.15;;;;;;;;;;6258697;28;20130;-74
2022/04/15 03:30:54;;;;;;;19.45;12.32;;;;;;;;;;6260885;28;20057;-73
2022/04/15 03:33:56;;;;;;;23.95;12.32;;;;;;;;;;6258513;28;20062;-73
2022/04/15 03:36:57;;;;;;;21.63;11.82;;;;;;;;;;6258577;28;20135;-73
2022/04/15 03:40:00;;;;;;;20.25;12.15;;;;;;;;;;6257796;28;20144;-73
2022/04/15 03:43:03;;;;;;;18.43;12.37;;;;;;;;;;6256308;28;20072;-72
2022/04/15 03:46:05;;;;;;;25.60;13.20;;;;;;;;;;6252389;28;20044;-73
2022/04/15 03:49:07;;;;;;;20.95;12.50;;;;;;;;;;6252588;28;20060;-74
2022/04/15 03:52:08;;;;;;;19.77;11.95;;;;;;;;;;6256007;28;20204;-74
2022/04/15 03:55:12;;;;;;;24.10;13.10;;;;;;;;;;6255455;28;20076;-73
2022/04/15 03:58:16;;;;;;;24.02;11.43;;;;;;;;;;6257321;28;20073;-73
2022/04/15 04:01:18;;;;;;;26.45;13.02;;;;;;;;;;6257203;28;20135;-73
2022/04/15 04:04:19;;;;;;;21.00;11.93;;;;;;;;;;6262856;28;20527;-73
2022/04/15 04:07:21;;;;;;;20.90;11.90;;;;;;;;;;6262949;28;20061;-73
2022/04/15 04:10:24;;;;;;;21.40;11.82;;;;;;;;;;6262255;28;20069;-73
2022/04/15 04:13:25;;;;;;;20.17;11.80;;;;;;;;;;6262068;28;20048;-73
2022/04/15 04:16:27;;;;;;;24.08;12.63;;;;;;;;;;6259270;28;20072;-73
2022/04/15 04:19:28;;;;;;;20.48;12.15;;;;;;;;;;6263760;28;20231;-73
2022/04/15 04:22:31;;;;;;;19.15;11.82;;;;;;;;;;6267465;28;20222;-74
2022/04/15 04:25:34;;;;;;;25.08;12.27;;;;;;;;;;6270954;28;20117;-73
2022/04/15 04:28:36;;;;;;;23.10;11.88;;;;;;;;;;6263761;28;20150;-73
2022/04/15 04:31:37;;;;;;;23.70;12.60;;;;;;;;;;6269549;28;20079;-74
2022/04/15 04:34:40;;;;;;;17.25;10.55;;;;;;;;;;6265116;28;20144;-74
2022/04/15 04:37:41;;;;;;;22.42;11.68;;;;;;;;;;6255264;28;20452;-74
2022/04/15 04:40:45;;;;;;;18.48;11.90;;;;;;;;;;6254264;28;20156;-73
2022/04/15 04:43:46;;;;;;;22.83;12.45;;;;;;;;;;6259617;28;20045;-73
2022/04/15 04:46:48;;;;;;;21.42;11.50;;;;;;;;;;6256032;28;20128;-73
2022/04/15 04:49:49;;;;;;;26.50;12.75;;;;;;;;;;6260240;28;20055;-74
2022/04/15 04:52:51;;;;;;;24.70;12.23;;;;;;;;;;6257380;28;20564;-74
2022/04/15 04:55:54;;;;;;;26.10;13.23;;;;;;;;;;6258643;28;20068;-74
2022/04/15 04:58:56;;;;;;;26.77;13.23;;;;;;;;;;6260362;28;20516;-74
2022/04/15 05:01:57;;;;;;;19.73;12.73;;;;;;;;;;6261286;28;20080;-74
2022/04/15 05:04:59;;;;;;;26.27;13.52;;;;;;;;;;6258438;28;20049;-74
2022/04/15 05:08:01;;;;;;;26.40;13.57;;;;;;;;;;6258689;28;20496;-74
2022/04/15 05:11:04;;;;;;;24.77;14.77;;;;;;;;;;6265597;28;20557;-73
2022/04/15 05:14:05;;;;;;;24.80;13.67;;;;;;;;;;6263212;28;20111;-73
2022/04/15 05:17:07;;;;;;;23.98;13.75;;;;;;;;;;6263116;28;20067;-73
2022/04/15 05:20:09;;;;;;;29.17;15.70;;;;;;;;;;6264934;28;20134;-74
2022/04/15 05:23:12;;;;;;;24.88;15.75;;;;;;;;;;6260009;28;20484;-73
2022/04/15 05:26:16;;;;;;;28.70;16.93;;;;;;;;;;6263416;28;20481;-74
2022/04/15 05:29:17;;;;;;;31.80;16.13;;;;;;;;;;6262649;28;20176;-74
2022/04/15 05:32:22;;;;;;;24.83;16.08;;;;;;;;;;6266215;28;20079;-74
2022/04/15 05:35:23;;;;;;;31.38;17.05;;;;;;;;;;6265563;28;20179;-73
2022/04/15 05:38:25;;;;;;;28.75;15.70;;;;;;;;;;6263214;28;20566;-73
2022/04/15 05:41:28;;;;;;;26.13;14.82;;;;;;;;;;6257611;28;20124;-73
2022/04/15 05:44:30;;;;;;;28.37;16.50;;;;;;;;;;6253330;28;20068;-73
2022/04/15 05:47:31;;;;;;;27.50;15.05;;;;;;;;;;6254209;28;20057;-73
2022/04/15 05:50:33;;;;;;;27.40;15.93;;;;;;;;;;6258772;28;20049;-74
2022/04/15 05:53:35;;;;;;;29.38;15.15;;;;;;;;;;6254394;28;20077;-74
2022/04/15 05:56:38;;;;;;;25.65;15.88;;;;;;;;;;6262611;28;20076;-73
2022/04/15 05:59:39;;;;;;;23.50;15.10;;;;;;;;;;6257503;28;20049;-74
2022/04/15 06:02:41;;;;;;;30.45;15.75;;;;;;;;;;6257345;28;20576;-74
2022/04/15 06:05:42;;;;;;;24.85;13.93;;;;;;;;;;6257575;28;20091;-73
2022/04/15 06:08:44;;;;;;;26.63;14.75;;;;;;;;;;6256676;28;20084;-71
2022/04/15 06:11:49;;;;;;;22.48;14.55;;;;;;;;;;6258765;28;20092;-70
2022/04/15 06:14:52;;;;;;;28.65;14.38;;;;;;;;;;6258305;28;20037;-70
2022/04/15 06:17:54;;;;;;;23.33;14.23;;;;;;;;;;6262859;28;20560;-72
2022/04/15 06:20:56;;;;;;;19.42;13.52;;;;;;;;;;6260762;28;20057;-72
2022/04/15 06:23:57;;;;;;;21.40;13.25;;;;;;;;;;6260548;28;20123;-69
2022/04/15 06:27:00;;;;;;;27.60;13.15;;;;;;;;;;6262010;28;20045;-69
2022/04/15 06:30:02;;;;;;;26.90;14.52;;;;;;;;;;6263199;28;20072;-68
2022/04/15 06:33:05;;;;;;;22.08;13.27;;;;;;;;;;6265709;28;20064;-69
2022/04/15 06:36:07;;;;;;;23.67;13.88;;;;;;;;;;6265027;28;20052;-68
2022/04/15 06:39:08;;;;;;;25.10;14.25;;;;;;;;;;6260773;28;20056;-69
2022/04/15 06:42:12;;;;;;;23.33;13.98;;;;;;;;;;6261340;28;20114;-75
2022/04/15 06:45:14;;;;;;;19.55;12.73;;;;;;;;;;6255944;28;20557;-74
2022/04/15 06:48:16;;;;;;;19.45;12.70;;;;;;;;;;6259742;28;20045;-76
2022/04/15 06:51:17;;;;;;;22.10;11.57;;;;;;;;;;6258566;28;20048;-73
2022/04/15 06:54:19;;;;;;;19.30;12.55;;;;;;;;;;6261374;28;20045;-73
2022/04/15 06:57:22;;;;;;;18.50;12.60;;;;;;;;;;6256550;28;20045;-73
2022/04/15 07:00:24;;;;;;;22.77;12.23;;;;;;;;;;6249508;28;20114;-73
2022/04/15 07:03:26;;;;;;;25.08;12.10;;;;;;;;;;6256577;28;20519;-73
2022/04/15 07:06:27;;;;;;;20.92;12.05;;;;;;;;;;6256383;28;20054;-73
2022/04/15 07:09:29;;;;;;;18.98;10.95;;;;;;;;;;6256769;28;20130;-73
2022/04/15 07:12:32;;;;;;;24.73;12.13;;;;;;;;;;6258893;28;20183;-73
2022/04/15 07:15:34;;;;;;;18.25;11.13;;;;;;;;;;6257120;28;20121;-73
2022/04/15 07:18:35;;;;;;;20.20;11.50;;;;;;;;;;6258059;28;20620;-73
2022/04/15 07:21:37;;;;;;;22.80;11.57;;;;;;;;;;6254407;28;20071;-74
2022/04/15 07:24:39;;;;;;;18.35;11.57;;;;;;;;;;6258502;28;20505;-74
2022/04/15 07:27:42;;;;;;;21.83;11.85;;;;;;;;;;6260234;28;20132;-73
2022/04/15 07:30:44;;;;;;;20.80;13.23;;;;;;;;;;6262432;28;20129;-73
2022/04/15 07:33:46;;;;;;;20.05;12.52;;;;;;;;;;6255307;28;20061;-73
2022/04/15 07:36:53;;;;;;;22.77;13.47;;;;;;;;;;6257379;28;20060;-74
2022/04/15 07:39:55;;;;;;;23.48;12.20;;;;;;;;;;6253878;28;20053;-73
2022/04/15 07:42:58;;;;;;;24.70;13.77;;;;;;;;;;6254946;28;20122;-74
2022/04/15 07:46:00;;;;;;;22.13;12.73;;;;;;;;;;6254710;28;20060;-74
2022/04/15 07:49:01;;;;;;;24.63;13.43;;;;;;;;;;6258319;28;20088;-74
2022/04/15 07:52:04;;;;;;;24.02;13.73;;;;;;;;;;6256516;28;20057;-74
2022/04/15 07:55:07;;;;;;;27.10;13.82;;;;;;;;;;6258857;28;20608;-74
2022/04/15 07:58:09;;;;;;;25.50;13.33;;;;;;;;;;6260861;28;20136;-74
2022/04/15 08:01:12;;;;;;;23.58;14.20;;;;;;;;;;6258970;28;20208;-74
2022/04/15 08:04:13;;;;;;;24.73;14.13;;;;;;;;;;6258669;28;20151;-73
2022/04/15 08:07:15;;;;;;;20.50;12.90;;;;;;;;;;6260010;28;20049;-74
2022/04/15 08:10:17;;;;;;;22.00;13.77;;;;;;;;;;6258460;28;20045;-74
2022/04/15 08:13:20;;;;;;;20.83;13.45;;;;;;;;;;6259586;28;20127;-73
2022/04/15 08:16:24;;;;;;;24.52;14.18;;;;;;;;;;6255089;28;20132;-73
2022/04/15 08:19:26;;;;;;;22.52;14.70;;;;;;;;;;6258338;28;20136;-73
2022/04/15 08:22:28;;;;;;;23.83;15.02;;;;;;;;;;6261354;28;20072;-73
2022/04/15 08:25:29;;;;;;;23.88;14.10;;;;;;;;;;6260963;28;20052;-73
2022/04/15 08:28:32;;;;;;;20.77;14.20;;;;;;;;;;6260147;28;20057;-72
2022/04/15 08:31:34;;;;;;;;;;;;;;;;;;6256724;28;20057;-72
2022/04/15 08:34:36;;;;;;;25.73;15.25;;;;;;;;;;6251911;28;19964;-71
2022/04/15 08:37:38;;;;;;;25.52;15.23;;;;;;;;;;6257365;28;20513;-72
2022/04/15 08:40:44;;;;;;;25.10;15.10;;;;;;;;;;6258157;28;20420;-72
2022/04/15 08:43:47;;;;;;;22.23;15.77;;;;;;;;;;6256824;28;20426;-71
2022/04/15 08:46:48;;;;;;;;;;;;;;;;;;6253993;28;20142;-72
2022/04/15 08:49:50;;;;;;;23.23;14.73;;;;;;;;;;6260275;28;20030;-72
2022/04/15 08:52:52;;;;;;;25.65;16.38;;;;;;;;;;6262737;28;20183;-72
2022/04/15 08:55:54;;;;;;;24.52;15.45;;;;;;;;;;6263530;28;20134;-72
2022/04/15 08:58:57;;;;;;;24.92;16.10;;;;;;;;;;6261199;28;20518;-72
2022/04/15 09:01:58;;;;;;;23.80;16.08;;;;;;;;;;6262745;28;20183;-73
2022/04/15 09:05:00;;;;;;;24.17;15.80;;;;;;;;;;6263775;28;20715;-68
2022/04/15 09:08:04;;;;;;;24.00;15.63;;;;;;;;;;6267598;28;20144;-67
2022/04/15 09:11:06;;;;;;;30.63;16.05;;;;;;;;;;6265266;28;20119;-69
2022/04/15 09:14:11;;;;;;;22.73;15.52;;;;;;;;;;6264220;28;20501;-68
2022/04/15 09:17:13;;;;;;;24.42;16.75;;;;;;;;;;6263950;28;20051;-68
2022/04/15 09:20:14;;;;;;;24.63;16.17;;;;;;;;;;6268951;28;20114;-68
2022/04/15 09:23:18;;;;;;;24.80;17.17;;;;;;;;;;6267716;28;20129;-66
2022/04/15 09:26:20;;;;;;;28.65;17.52;;;;;;;;;;6269938;28;20052;-68
2022/04/15 09:29:26;;;;;;;145.48;104.75;;;;;;;;;;6267335;28;20060;-67
2022/04/15 09:32:28;;;;;;;30.25;19.77;;;;;;;;;;6258238;28;20060;-71
2022/04/15 09:35:30;;;;;;;55.80;38.80;;;;;;;;;;6254461;28;20111;-68
2022/04/15 09:38:42;;;;;;;52.88;37.75;;;;;;;;;;6257087;28;20049;-68
2022/04/15 09:41:51;;;;;;;33.85;23.33;;;;;;;;;;6258534;28;20130;-70
2022/04/15 09:44:57;;;;;;;26.98;18.92;;;;;;;;;;6258203;28;20053;-69
2022/04/15 09:48:00;;;;;;;25.65;17.88;;;;;;;;;;6259902;28;20072;-68
2022/04/15 09:51:02;;;;;;;29.52;18.05;;;;;;;;;;6255554;28;20132;-71
2022/04/15 09:54:05;;;;;;;32.80;18.00;;;;;;;;;;6259107;28;20053;-69
2022/04/15 09:57:09;;;;;;;25.73;17.45;;;;;;;;;;6255507;28;20172;-68
2022/04/15 10:00:13;;;;;;;28.48;16.90;;;;;;;;;;6256167;28;20056;-68
2022/04/15 10:03:19;;;;;;;28.60;17.25;;;;;;;;;;6258061;28;20578;-70
2022/04/15 10:06:21;;;;;;;63.38;49.92;;;;;;;;;;6259968;28;20411;-69
2022/04/15 10:09:23;;;;;;;82.40;51.65;;;;;;;;;;6261992;28;20507;-69
2022/04/15 10:12:25;;;;;;;36.05;21.95;;;;;;;;;;6262842;28;20203;-70
2022/04/15 10:15:29;;;;;;;36.63;19.67;;;;;;;;;;6259410;28;20072;-70
2022/04/15 10:18:31;;;;;;;44.17;30.48;;;;;;;;;;6260224;28;20066;-70
2022/04/15 10:21:34;;;;;;;27.92;18.45;;;;;;;;;;6258869;28;20099;-69
2022/04/15 10:24:35;;;;;;;29.33;19.05;;;;;;;;;;6265646;28;20045;-66
2022/04/15 10:27:37;;;;;;;27.40;19.05;;;;;;;;;;6261049;28;20127;-68
2022/04/15 10:30:47;;;;;;;26.23;19.00;;;;;;;;;;6266275;28;20135;-68
2022/04/15 10:33:49;;;;;;;31.80;19.27;;;;;;;;;;6262078;28;20127;-68
2022/04/15 10:36:52;;;;;;;26.73;18.70;;;;;;;;;;6261228;28;20045;-68
2022/04/15 10:39:54;;;;;;;27.08;18.55;;;;;;;;;;6261606;28;20108;-68
2022/04/15 10:42:56;;;;;;;27.42;18.98;;;;;;;;;;6261160;28;20130;-68
2022/04/15 10:46:14;;;;;;;27.35;19.13;;;;;;;;;;6251466;28;20049;-68
2022/04/15 10:49:20;;;;;;;26.70;18.40;;;;;;;;;;6254371;28;20048;-68
2022/04/15 10:52:25;;;;;;;31.02;20.38;;;;;;;;;;6252896;28;20102;-68
2022/04/15 10:55:42;;;;;;;31.85;20.33;;;;;;;;;;6253561;28;20120;-68
2022/04/15 11:01:13;;;;;;;29.25;20.10;;;;;;;;;;6255772;28;20056;-68
2022/04/15 11:02:14;;;;;;;32.53;22.20;;;;;;;;;;6259000;28;20045;-68
2022/04/15 11:05:33;;;;;;;30.10;19.58;;;;;;;;;;6259769;28;20068;-68
2022/04/15 11:08:45;;;;;;;26.92;19.13;;;;;;;;;;6261110;28;20053;-74
2022/04/15 11:11:51;;;;;;;26.30;18.33;;;;;;;;;;6258717;28;20513;-74
2022/04/15 11:14:53;;;;;;;27.42;18.08;;;;;;;;;;6255445;28;20077;-72
2022/04/15 11:17:57;;;;;;;27.23;16.13;;;;;;;;;;6256487;28;20462;-71
2022/04/15 11:20:59;;;;;;;24.83;18.38;;;;;;;;;;6257031;28;20497;-72
2022/04/15 11:24:02;;;;;;;30.30;20.10;;;;;;;;;;6257966;28;20147;-72
2022/04/15 11:27:05;;;;;;;25.98;18.45;;;;;;;;;;6255241;28;20040;-72
2022/04/15 11:30:17;;;;;;;23.80;18.15;;;;;;;;;;6255270;28;20138;-72
2022/04/15 11:33:20;;;;;;;27.90;21.13;;;;;;;;;;6247322;28;20527;-72
2022/04/15 11:36:23;;;;;;;28.65;21.08;;;;;;;;;;6255364;28;20053;-72
2022/04/15 11:39:26;;;;;;;31.38;21.73;;;;;;;;;;6258034;28;20104;-72
2022/04/15 11:42:27;;;;;;;28.40;20.00;;;;;;;;;;6256272;28;20041;-72
2022/04/15 11:45:33;;;;;;;29.73;20.83;;;;;;;;;;6260847;28;20624;-72
2022/04/15 11:48:38;;;;;;;30.65;20.65;;;;;;;;;;6261223;28;20132;-72
2022/04/15 11:51:40;;;;;;;33.47;22.10;;;;;;;;;;6254707;28;20515;-72
2022/04/15 11:54:41;;;;;;;;;;;;;;;;;;6251411;28;20049;-73
2022/04/15 11:57:42;;;;;;;36.33;21.52;;;;;;;;;;6257483;28;20018;-72
2022/04/15 12:00:50;;;;;;;33.15;22.42;;;;;;;;;;6253310;28;20094;-74
2022/04/15 12:03:54;;;;;;;32.97;21.35;;;;;;;;;;6260566;28;20058;-68
2022/04/15 12:06:55;;;;;;;29.35;21.20;;;;;;;;;;6255767;28;20123;-69
2022/04/15 12:09:57;;;;;;;37.95;24.35;;;;;;;;;;6252604;28;20046;-68
2022/04/15 12:12:58;;;;;;;50.08;35.15;;;;;;;;;;6258923;28;20150;-68
2022/04/15 12:16:00;;;;;;;45.75;34.72;;;;;;;;;;6256287;28;20037;-68
2022/04/15 12:19:04;;;;;;;31.25;22.23;;;;;;;;;;6258161;28;20048;-69
2022/04/15 12:22:08;;;;;;;32.20;21.30;;;;;;;;;;6262989;28;20114;-68
2022/04/15 12:25:15;;;;;;;36.10;22.27;;;;;;;;;;6263750;28;20126;-68
2022/04/15 12:31:34;;;;;;;34.65;23.08;;;;;;;;;;6264196;28;20053;-70
2022/04/15 12:34:37;;;;;;;32.20;22.52;;;;;;;;;;6258411;28;20045;-69
2022/04/15 12:37:41;;;;;;;30.80;21.35;;;;;;;;;;6260765;28;20114;-69
2022/04/15 12:40:43;;;;;;;32.55;21.90;;;;;;;;;;6258644;28;20060;-69
2022/04/15 12:43:44;;;;;;;31.42;22.13;;;;;;;;;;6261302;28;20136;-69
2022/04/15 12:46:48;;;;;;;33.00;21.65;;;;;;;;;;6263139;28;20455;-69
2022/04/15 12:49:51;;;;;;;27.13;20.10;;;;;;;;;;6258453;28;20048;-69
2022/04/15 12:52:53;;;;;;;28.05;20.67;;;;;;;;;;6261042;28;20058;-70
2022/04/15 12:56:08;;;;;;;32.30;21.35;;;;;;;;;;6262890;28;20132;-69
2022/04/15 12:59:10;;;;;;;32.92;23.70;;;;;;;;;;6261914;28;20084;-69
2022/04/15 13:02:12;;;;;;;31.15;21.83;;;;;;;;;;6262931;28;20078;-69
2022/04/15 13:05:15;;;;;;;35.30;22.70;;;;;;;;;;6264821;28;20191;-70
2022/04/15 13:08:17;;;;;;;33.33;23.73;;;;;;;;;;6264743;28;20049;-69
2022/04/15 13:11:19;;;;;;;32.97;21.88;;;;;;;;;;6262795;28;20051;-70
2022/04/15 13:14:20;;;;;;;34.35;22.55;;;;;;;;;;6265531;28;20484;-69
2022/04/15 13:17:22;;;;;;;33.22;21.35;;;;;;;;;;6259005;28;20098;-68
2022/04/15 13:20:25;;;;;;;32.03;21.52;;;;;;;;;;6260940;28;20378;-69
2022/04/15 13:23:26;;;;;;;37.25;23.40;;;;;;;;;;6255729;28;20083;-71
2022/04/15 13:26:29;;;;;;;37.13;22.50;;;;;;;;;;6260542;28;20133;-73
2022/04/15 13:29:32;;;;;;;76.32;59.45;;;;;;;;;;6256355;28;20049;-71
2022/04/15 13:32:33;;;;;;;93.70;71.50;;;;;;;;;;6261373;28;20045;-71
2022/04/15 13:35:36;;;;;;;80.53;65.20;;;;;;;;;;6260285;28;20533;-72
2022/04/15 13:38:38;;;;;;;38.47;23.85;;;;;;;;;;6263009;28;20064;-68
2022/04/15 13:41:39;;;;;;;35.65;23.58;;;;;;;;;;6257280;28;20132;-68
2022/04/15 13:44:41;;;;;;;32.38;22.20;;;;;;;;;;6260342;28;20110;-69
2022/04/15 13:47:42;;;;;;;34.83;22.77;;;;;;;;;;6260866;28;20437;-69
2022/04/15 13:50:45;;;;;;;35.10;22.65;;;;;;;;;;6258037;28;20073;-69
2022/04/15 13:57:07;;;;;;;32.17;21.45;;;;;;;;;;6264112;28;20052;-69
2022/04/15 14:00:10;;;;;;;32.85;20.48;;;;;;;;;;6261120;28;20234;-69
2022/04/15 14:03:11;;;;;;;30.70;21.20;;;;;;;;;;6262505;28;20041;-69
2022/04/15 14:06:14;;;;;;;32.30;21.00;;;;;;;;;;6262477;28;20508;-69
2022/04/15 14:09:18;;;;;;;38.53;21.63;;;;;;;;;;6261716;28;20136;-71
2022/04/15 14:12:20;;;;;;;27.52;19.67;;;;;;;;;;6260925;28;20172;-69
2022/04/15 14:15:23;;;;;;;33.45;21.20;;;;;;;;;;6263849;28;20072;-69
2022/04/15 14:18:25;;;;;;;30.05;20.33;;;;;;;;;;6262481;28;20049;-69
2022/04/15 14:21:29;;;;;;;;;;;;;;;;;;6263430;28;20052;-69
2022/04/15 14:24:33;;;;;;;30.58;20.63;;;;;;;;;;6265912;28;19958;-72
2022/04/15 14:27:35;;;;;;;46.38;36.00;;;;;;;;;;6266693;28;20122;-72
2022/04/15 14:30:37;;;;;;;40.50;28.70;;;;;;;;;;6264628;28;20140;-73
2022/04/15 14:33:39;;;;;;;33.17;22.33;;;;;;;;;;6256751;28;20195;-69
2022/04/15 14:36:42;;;;;;;32.20;21.33;;;;;;;;;;6259276;28;20059;-69
2022/04/15 14:39:44;;;;;;;30.38;20.30;;;;;;;;;;6258369;28;20562;-69
2022/04/15 14:42:45;;;;;;;28.00;19.65;;;;;;;;;;6262025;28;20048;-69
2022/04/15 14:45:48;;;;;;;26.08;18.33;;;;;;;;;;6256795;28;20048;-68
2022/04/15 14:48:51;;;;;;;26.13;19.35;;;;;;;;;;6256889;28;20167;-67
2022/04/15 14:51:54;;;;;;;28.08;19.33;;;;;;;;;;6254349;28;20047;-68
2022/04/15 14:54:57;;;;;;;30.38;19.38;;;;;;;;;;6255375;28;20507;-68
2022/04/15 14:57:59;;;;;;;29.75;19.63;;;;;;;;;;6254244;28;20045;-68
2022/04/15 15:01:01;;;;;;;29.00;19.77;;;;;;;;;;6253462;28;20041;-68
2022/04/15 15:04:03;;;;;;;28.10;18.20;;;;;;;;;;6259157;28;20160;-69
2022/04/15 15:07:06;;;;;;;26.23;17.75;;;;;;;;;;6253834;28;20136;-68
2022/04/15 15:10:09;;;;;;;28.33;16.73;;;;;;;;;;6254253;28;20782;-69
2022/04/15 15:13:11;;;;;;;30.67;18.10;;;;;;;;;;6253873;28;20166;-68
2022/04/15 15:16:13;;;;;;;26.92;17.55;;;;;;;;;;6259071;28;20131;-68
2022/04/15 15:19:14;;;;;;;26.95;17.80;;;;;;;;;;6256212;28;20041;-68
2022/04/15 15:22:18;;;;;;;29.70;18.13;;;;;;;;;;6254426;28;20052;-68
2022/04/15 15:31:54;;;;;;;51.38;34.83;;;;;;;;;;6253017;28;20048;-70
2022/04/15 15:34:56;;;;;;;30.33;22.23;;;;;;;;;;6254194;28;20061;-69
2022/04/15 15:37:59;;;;;;;28.85;18.17;;;;;;;;;;6255447;28;20121;-70
2022/04/15 15:41:00;;;;;;;28.52;18.42;;;;;;;;;;6259838;28;20072;-70
2022/04/15 15:44:02;;;;;;;27.65;17.80;;;;;;;;;;6257105;28;20573;-70
2022/04/15 15:47:05;;;;;;;26.70;17.88;;;;;;;;;;6253108;28;20154;-69
2022/04/15 15:50:07;;;;;;;28.23;19.75;;;;;;;;;;6256463;28;20124;-70
2022/04/15 15:53:11;;;;;;;28.77;18.88;;;;;;;;;;6254841;28;20124;-70
2022/04/15 15:56:12;;;;;;;28.88;18.50;;;;;;;;;;6255856;28;20048;-70
2022/04/15 15:59:14;;;;;;;29.73;19.77;;;;;;;;;;6263078;28;20132;-70
2022/04/15 16:02:16;;;;;;;28.00;18.63;;;;;;;;;;6265722;28;20049;-71
2022/04/15 16:05:17;;;;;;;32.90;17.60;;;;;;;;;;6267240;28;20080;-70
2022/04/15 16:08:20;;;;;;;26.88;18.60;;;;;;;;;;6266729;28;20106;-70
2022/04/15 16:11:22;;;;;;;30.05;20.80;;;;;;;;;;6269504;28;20056;-71
2022/04/15 16:14:24;;;;;;;29.80;19.88;;;;;;;;;;6269831;28;20068;-70
2022/04/15 16:17:26;;;;;;;33.28;20.67;;;;;;;;;;6270031;28;20086;-71
2022/04/15 16:20:28;;;;;;;33.60;21.13;;;;;;;;;;6271776;28;20051;-70
2022/04/15 16:23:31;;;;;;;35.65;20.08;;;;;;;;;;6269242;28;20135;-71
2022/04/15 16:26:32;;;;;;;33.60;20.70;;;;;;;;;;6268345;28;20063;-71
2022/04/15 16:29:34;;;;;;;34.90;19.60;;;;;;;;;;6266445;28;20046;-71
2022/04/15 16:32:35;;;;;;;29.10;18.70;;;;;;;;;;6268182;28;20057;-71
2022/04/15 16:35:37;;;;;;;33.75;19.48;;;;;;;;;;6267474;28;20049;-71
2022/04/15 16:38:40;;;;;;;30.20;17.80;;;;;;;;;;6267928;28;20147;-71
2022/04/15 16:41:42;;;;;;;30.40;18.08;;;;;;;;;;6263452;28;20045;-71
2022/04/15 16:44:43;;;;;;;29.05;17.60;;;;;;;;;;6268059;28;20044;-71
2022/04/15 16:47:45;;;;;;;30.58;17.77;;;;;;;;;;6265588;28;20167;-71
2022/04/15 16:50:46;;;;;;;28.02;16.52;;;;;;;;;;6268737;28;20060;-72
2022/04/15 16:53:49;;;;;;;28.27;16.65;;;;;;;;;;6269019;28;20045;-71
2022/04/15 17:00:10;;;;;;;30.20;17.30;;;;;;;;;;6262897;28;20101;-71
2022/04/15 17:03:12;;;;;;;31.08;17.20;;;;;;;;;;6268394;28;20057;-71
2022/04/15 17:06:32;;;;;;;29.92;16.60;;;;;;;;;;6268205;28;20044;-71
2022/04/15 17:12:54;;;;;;;30.15;16.38;;;;;;;;;;6262349;28;20048;-70
2022/04/15 17:15:57;;;;;;;131.27;106.90;;;;;;;;;;6261569;28;20584;-70
2022/04/15 17:18:59;;;;;;;52.45;30.20;;;;;;;;;;6264184;28;20346;-71
2022/04/15 17:22:00;;;;;;;29.15;16.17;;;;;;;;;;6259599;28;20045;-72
2022/04/15 17:25:06;;;;;;;65.47;41.55;;;;;;;;;;6261056;28;20053;-72
2022/04/15 17:28:19;;;;;;;56.45;30.92;;;;;;;;;;6252233;28;20046;-70
2022/04/15 17:31:26;;;;;;;48.63;24.58;;;;;;;;;;6264409;28;20151;-70
2022/04/15 17:34:31;;;;;;;59.42;33.03;;;;;;;;;;6264018;28;20053;-70
2022/04/15 17:37:32;;;;;;;35.33;18.77;;;;;;;;;;6261457;28;20492;-70
2022/04/15 17:40:35;;;;;;;49.80;31.92;;;;;;;;;;6258437;28;20488;-70
2022/04/15 17:43:37;;;;;;;39.42;23.42;;;;;;;;;;6259382;28;20146;-69
2022/04/15 17:46:38;;;;;;;62.00;37.92;;;;;;;;;;6261225;28;20130;-68
2022/04/15 17:49:40;;;;;;;34.55;15.52;;;;;;;;;;6258150;28;20132;-71
2022/04/15 17:52:44;;;;;;;29.88;15.60;;;;;;;;;;6264523;28;20059;-70
2022/04/15 17:55:47;;;;;;;26.92;13.95;;;;;;;;;;6264759;28;20084;-71
2022/04/15 17:58:48;;;;;;;35.05;15.95;;;;;;;;;;6260895;28;20131;-70
2022/04/15 18:01:53;;;;;;;28.58;14.75;;;;;;;;;;6258119;28;20569;-72
2022/04/15 18:04:55;;;;;;;28.52;15.07;;;;;;;;;;6263061;28;20052;-70